sensor_id;sensor_type;location;lat;lon;timestamp;P1;durP1;ratioP1;P2;durP2;ratioP2
52320;SDS011;38261;54.090;13.382;2022-08-20T00:00:18;26.57;;;18.30;;
52320;SDS011;38261;54.090;13.382;2022-08-20T00:01:41;24.80;;;17.30;;
52320;SDS011;38261;54.090;13.382;2022-08-20T00:03:05;26.43;;;17.73;;
52320;SDS011;38261;54.090;13.382;2022-08-20T00:04:30;21.27;;;16.30;;
52320;SDS011;38261;54.090;13.382;2022-08-20T00:05:57;24.70;;;17.00;;
52320;SDS011;38261;54.090;13.382;2022-08-20T00:07:19;26.30;;;18.20;;
52320;SDS011;38261;54.090;13.382;2022-08-20T00:08:42;27.53;;;16.80;;
52320;SDS011;38261;54.090;13.382;2022-08-20T00:10:07;25.70;;;16.87;;
52320;SDS011;38261;54.090;13.382;2022-08-20T00:11:30;27.47;;;17.80;;
52320;SDS011;38261;54.090;13.382;2022-08-20T00:12:54;27.33;;;18.60;;
52320;SDS011;38261;54.090;13.382;2022-08-20T00:14:16;23.77;;;16.60;;
52320;SDS011;38261;54.090;13.382;2022-08-20T00:15:39;28.80;;;18.00;;
52320;SDS011;38261;54.090;13.382;2022-08-20T00:17:02;24.67;;;15.60;;
52320;SDS011;38261;54.090;13.382;2022-08-20T00:18:25;23.97;;;16.77;;
52320;SDS011;38261;54.090;13.382;2022-08-20T00:19:48;28.53;;;16.10;;
52320;SDS011;38261;54.090;13.382;2022-08-20T00:21:11;22.10;;;13.80;;
52320;SDS011;38261;54.090;13.382;2022-08-20T00:22:39;25.33;;;15.43;;
52320;SDS011;38261;54.090;13.382;2022-08-20T00:24:02;24.73;;;16.67;;
52320;SDS011;38261;54.090;13.382;2022-08-20T00:25:25;22.77;;;14.33;;
52320;SDS011;38261;54.090;13.382;2022-08-20T00:26:49;26.77;;;15.43;;
52320;SDS011;38261;54.090;13.382;2022-08-20T00:28:13;24.20;;;15.70;;
52320;SDS011;38261;54.090;13.382;2022-08-20T00:29:35;21.03;;;14.00;;
52320;SDS011;38261;54.090;13.382;2022-08-20T00:30:58;22.20;;;14.73;;
52320;SDS011;38261;54.090;13.382;2022-08-20T00:32:20;23.80;;;14.47;;
52320;SDS011;38261;54.090;13.382;2022-08-20T00:33:42;16.90;;;12.77;;
52320;SDS011;38261;54.090;13.382;2022-08-20T00:35:05;19.20;;;13.87;;
52320;SDS011;38261;54.090;13.382;2022-08-20T00:36:33;20.37;;;14.73;;
52320;SDS011;38261;54.090;13.382;2022-08-20T00:37:55;21.67;;;14.77;;
52320;SDS011;38261;54.090;13.382;2022-08-20T00:39:21;19.80;;;14.70;;
52320;SDS011;38261;54.090;13.382;2022-08-20T00:40:48;21.27;;;14.77;;
52320;SDS011;38261;54.090;13.382;2022-08-20T00:42:15;15.20;;;11.80;;
52320;SDS011;38261;54.090;13.382;2022-08-20T00:43:42;14.90;;;12.23;;
52320;SDS011;38261;54.090;13.382;2022-08-20T00:45:26;22.90;;;13.30;;
52320;SDS011;38261;54.090;13.382;2022-08-20T00:46:49;20.70;;;13.00;;
52320;SDS011;38261;54.090;13.382;2022-08-20T00:48:12;22.70;;;14.67;;
52320;SDS011;38261;54.090;13.382;2022-08-20T00:49:35;19.97;;;14.13;;
52320;SDS011;38261;54.090;13.382;2022-08-20T00:51:00;24.27;;;16.37;;
52320;SDS011;38261;54.090;13.382;2022-08-20T00:52:26;19.80;;;14.27;;
52320;SDS011;38261;54.090;13.382;2022-08-20T00:53:48;22.20;;;15.30;;
52320;SDS011;38261;54.090;13.382;2022-08-20T00:55:10;28.37;;;17.70;;
52320;SDS011;38261;54.090;13.382;2022-08-20T00:56:33;24.03;;;15.40;;
52320;SDS011;38261;54.090;13.382;2022-08-20T00:57:57;21.80;;;15.17;;
52320;SDS011;38261;54.090;13.382;2022-08-20T00:59:23;20.10;;;15.23;;
52320;SDS011;38261;54.090;13.382;2022-08-20T01:00:48;26.60;;;16.83;;
52320;SDS011;38261;54.090;13.382;2022-08-20T01:02:12;30.53;;;17.30;;
52320;SDS011;38261;54.090;13.382;2022-08-20T01:03:36;23.80;;;16.63;;
52320;SDS011;38261;54.090;13.382;2022-08-20T01:04:59;25.33;;;16.37;;
52320;SDS011;38261;54.090;13.382;2022-08-20T01:06:22;29.20;;;17.73;;
52320;SDS011;38261;54.090;13.382;2022-08-20T01:07:45;33.50;;;17.90;;
52320;SDS011;38261;54.090;13.382;2022-08-20T01:09:12;26.80;;;19.00;;
52320;SDS011;38261;54.090;13.382;2022-08-20T01:10:37;35.90;;;18.87;;
52320;SDS011;38261;54.090;13.382;2022-08-20T01:12:01;29.97;;;20.17;;
52320;SDS011;38261;54.090;13.382;2022-08-20T01:13:24;34.90;;;20.50;;
52320;SDS011;38261;54.090;13.382;2022-08-20T01:14:47;36.03;;;20.50;;
52320;SDS011;38261;54.090;13.382;2022-08-20T01:16:20;29.90;;;19.63;;
52320;SDS011;38261;54.090;13.382;2022-08-20T01:17:50;33.07;;;19.60;;
52320;SDS011;38261;54.090;13.382;2022-08-20T01:19:15;38.63;;;21.90;;
52320;SDS011;38261;54.090;13.382;2022-08-20T01:20:55;32.87;;;21.20;;
52320;SDS011;38261;54.090;13.382;2022-08-20T01:22:23;35.00;;;20.43;;
52320;SDS011;38261;54.090;13.382;2022-08-20T01:24:16;35.10;;;21.43;;
52320;SDS011;38261;54.090;13.382;2022-08-20T01:26:00;37.40;;;22.60;;
52320;SDS011;38261;54.090;13.382;2022-08-20T01:27:44;32.80;;;21.50;;
52320;SDS011;38261;54.090;13.382;2022-08-20T01:29:19;33.63;;;22.50;;
52320;SDS011;38261;54.090;13.382;2022-08-20T01:30:44;41.90;;;22.90;;
52320;SDS011;38261;54.090;13.382;2022-08-20T01:32:07;29.57;;;20.60;;
52320;SDS011;38261;54.090;13.382;2022-08-20T01:33:29;40.20;;;24.90;;
52320;SDS011;38261;54.090;13.382;2022-08-20T01:34:52;36.20;;;22.63;;
52320;SDS011;38261;54.090;13.382;2022-08-20T01:36:19;40.33;;;24.27;;
52320;SDS011;38261;54.090;13.382;2022-08-20T01:37:44;42.87;;;24.40;;
52320;SDS011;38261;54.090;13.382;2022-08-20T01:39:07;40.70;;;24.50;;
52320;SDS011;38261;54.090;13.382;2022-08-20T01:40:43;45.67;;;26.40;;
52320;SDS011;38261;54.090;13.382;2022-08-20T01:42:34;41.30;;;24.30;;
52320;SDS011;38261;54.090;13.382;2022-08-20T01:44:20;43.77;;;25.30;;
52320;SDS011;38261;54.090;13.382;2022-08-20T01:45:45;41.73;;;24.80;;
52320;SDS011;38261;54.090;13.382;2022-08-20T01:47:12;52.33;;;28.20;;
52320;SDS011;38261;54.090;13.382;2022-08-20T01:48:37;44.27;;;25.50;;
52320;SDS011;38261;54.090;13.382;2022-08-20T01:50:02;48.30;;;26.43;;
52320;SDS011;38261;54.090;13.382;2022-08-20T01:51:33;45.00;;;26.33;;
52320;SDS011;38261;54.090;13.382;2022-08-20T01:54:36;45.10;;;27.27;;
52320;SDS011;38261;54.090;13.382;2022-08-20T01:55:59;48.30;;;28.37;;
52320;SDS011;38261;54.090;13.382;2022-08-20T01:57:23;48.07;;;26.50;;
52320;SDS011;38261;54.090;13.382;2022-08-20T01:58:48;50.07;;;27.20;;
52320;SDS011;38261;54.090;13.382;2022-08-20T02:00:17;49.13;;;28.17;;
52320;SDS011;38261;54.090;13.382;2022-08-20T02:01:42;51.27;;;26.70;;
52320;SDS011;38261;54.090;13.382;2022-08-20T02:03:07;40.90;;;25.20;;
52320;SDS011;38261;54.090;13.382;2022-08-20T02:04:29;44.87;;;27.00;;
52320;SDS011;38261;54.090;13.382;2022-08-20T02:05:51;40.30;;;23.60;;
52320;SDS011;38261;54.090;13.382;2022-08-20T02:07:16;42.17;;;24.13;;
52320;SDS011;38261;54.090;13.382;2022-08-20T02:08:40;45.70;;;25.60;;
52320;SDS011;38261;54.090;13.382;2022-08-20T02:10:04;46.10;;;25.80;;
52320;SDS011;38261;54.090;13.382;2022-08-20T02:11:29;43.30;;;25.00;;
52320;SDS011;38261;54.090;13.382;2022-08-20T02:12:52;36.70;;;23.23;;
52320;SDS011;38261;54.090;13.382;2022-08-20T02:14:14;40.17;;;23.70;;
52320;SDS011;38261;54.090;13.382;2022-08-20T02:15:37;44.40;;;25.80;;
52320;SDS011;38261;54.090;13.382;2022-08-20T02:17:00;42.20;;;24.07;;
52320;SDS011;38261;54.090;13.382;2022-08-20T02:18:22;42.27;;;24.47;;
52320;SDS011;38261;54.090;13.382;2022-08-20T02:19:48;36.73;;;22.30;;
52320;SDS011;38261;54.090;13.382;2022-08-20T02:21:12;39.10;;;22.87;;
52320;SDS011;38261;54.090;13.382;2022-08-20T02:24:10;34.10;;;21.60;;
52320;SDS011;38261;54.090;13.382;2022-08-20T02:25:34;34.07;;;22.33;;
52320;SDS011;38261;54.090;13.382;2022-08-20T02:26:57;36.60;;;22.27;;
52320;SDS011;38261;54.090;13.382;2022-08-20T02:28:20;36.93;;;23.53;;
52320;SDS011;38261;54.090;13.382;2022-08-20T02:29:43;38.83;;;22.60;;
52320;SDS011;38261;54.090;13.382;2022-08-20T02:31:05;40.00;;;24.70;;
52320;SDS011;38261;54.090;13.382;2022-08-20T02:32:29;41.77;;;22.80;;
52320;SDS011;38261;54.090;13.382;2022-08-20T02:33:54;40.80;;;23.37;;
52320;SDS011;38261;54.090;13.382;2022-08-20T02:35:38;42.80;;;23.87;;
52320;SDS011;38261;54.090;13.382;2022-08-20T02:37:04;30.33;;;19.00;;
52320;SDS011;38261;54.090;13.382;2022-08-20T02:38:27;38.53;;;24.30;;
52320;SDS011;38261;54.090;13.382;2022-08-20T02:39:50;40.37;;;23.13;;
52320;SDS011;38261;54.090;13.382;2022-08-20T02:41:12;39.20;;;22.23;;
52320;SDS011;38261;54.090;13.382;2022-08-20T02:42:35;38.03;;;22.27;;
52320;SDS011;38261;54.090;13.382;2022-08-20T02:43:58;38.60;;;24.20;;
52320;SDS011;38261;54.090;13.382;2022-08-20T02:45:20;37.50;;;24.10;;
52320;SDS011;38261;54.090;13.382;2022-08-20T02:46:43;33.93;;;22.43;;
52320;SDS011;38261;54.090;13.382;2022-08-20T02:48:05;35.73;;;21.60;;
52320;SDS011;38261;54.090;13.382;2022-08-20T02:49:28;43.23;;;23.37;;
52320;SDS011;38261;54.090;13.382;2022-08-20T02:50:52;35.30;;;22.93;;
52320;SDS011;38261;54.090;13.382;2022-08-20T02:52:17;40.23;;;24.03;;
52320;SDS011;38261;54.090;13.382;2022-08-20T02:53:40;36.87;;;22.20;;
52320;SDS011;38261;54.090;13.382;2022-08-20T02:55:02;35.27;;;22.27;;
52320;SDS011;38261;54.090;13.382;2022-08-20T02:56:25;35.80;;;22.63;;
52320;SDS011;38261;54.090;13.382;2022-08-20T02:57:47;38.80;;;22.40;;
52320;SDS011;38261;54.090;13.382;2022-08-20T02:59:13;41.43;;;24.27;;
52320;SDS011;38261;54.090;13.382;2022-08-20T03:00:40;40.90;;;23.63;;
52320;SDS011;38261;54.090;13.382;2022-08-20T03:02:03;32.80;;;22.77;;
52320;SDS011;38261;54.090;13.382;2022-08-20T03:03:25;36.00;;;22.87;;
52320;SDS011;38261;54.090;13.382;2022-08-20T03:04:47;39.00;;;24.87;;
52320;SDS011;38261;54.090;13.382;2022-08-20T03:06:10;35.93;;;23.00;;
52320;SDS011;38261;54.090;13.382;2022-08-20T03:07:43;32.33;;;21.00;;
52320;SDS011;38261;54.090;13.382;2022-08-20T03:09:10;34.70;;;21.77;;
52320;SDS011;38261;54.090;13.382;2022-08-20T03:10:33;33.13;;;23.03;;
52320;SDS011;38261;54.090;13.382;2022-08-20T03:11:57;37.73;;;24.23;;
52320;SDS011;38261;54.090;13.382;2022-08-20T03:13:20;36.13;;;22.40;;
52320;SDS011;38261;54.090;13.382;2022-08-20T03:14:43;35.00;;;22.53;;
52320;SDS011;38261;54.090;13.382;2022-08-20T03:16:05;33.80;;;20.63;;
52320;SDS011;38261;54.090;13.382;2022-08-20T03:17:27;32.90;;;21.10;;
52320;SDS011;38261;54.090;13.382;2022-08-20T03:18:50;32.03;;;21.83;;
52320;SDS011;38261;54.090;13.382;2022-08-20T03:20:13;34.13;;;22.47;;
52320;SDS011;38261;54.090;13.382;2022-08-20T03:21:35;27.53;;;19.60;;
52320;SDS011;38261;54.090;13.382;2022-08-20T03:22:57;33.43;;;20.30;;
52320;SDS011;38261;54.090;13.382;2022-08-20T03:24:19;32.73;;;21.80;;
52320;SDS011;38261;54.090;13.382;2022-08-20T03:25:42;31.40;;;20.40;;
52320;SDS011;38261;54.090;13.382;2022-08-20T03:27:04;27.10;;;18.87;;
52320;SDS011;38261;54.090;13.382;2022-08-20T03:28:27;30.77;;;19.73;;
52320;SDS011;38261;54.090;13.382;2022-08-20T03:29:50;28.23;;;18.50;;
52320;SDS011;38261;54.090;13.382;2022-08-20T03:31:12;27.43;;;17.47;;
52320;SDS011;38261;54.090;13.382;2022-08-20T03:32:36;28.40;;;18.90;;
52320;SDS011;38261;54.090;13.382;2022-08-20T03:33:58;28.20;;;19.00;;
52320;SDS011;38261;54.090;13.382;2022-08-20T03:35:21;26.33;;;18.00;;
52320;SDS011;38261;54.090;13.382;2022-08-20T03:36:44;25.93;;;18.40;;
52320;SDS011;38261;54.090;13.382;2022-08-20T03:38:08;27.70;;;18.60;;
52320;SDS011;38261;54.090;13.382;2022-08-20T03:39:31;28.73;;;18.23;;
52320;SDS011;38261;54.090;13.382;2022-08-20T03:40:53;29.27;;;18.00;;
52320;SDS011;38261;54.090;13.382;2022-08-20T03:42:15;29.67;;;18.67;;
52320;SDS011;38261;54.090;13.382;2022-08-20T03:43:37;35.80;;;20.10;;
52320;SDS011;38261;54.090;13.382;2022-08-20T03:45:01;28.80;;;20.50;;
52320;SDS011;38261;54.090;13.382;2022-08-20T03:46:24;28.80;;;18.83;;
52320;SDS011;38261;54.090;13.382;2022-08-20T03:47:47;34.00;;;21.70;;
52320;SDS011;38261;54.090;13.382;2022-08-20T03:49:10;34.77;;;20.57;;
52320;SDS011;38261;54.090;13.382;2022-08-20T03:50:32;33.63;;;22.87;;
52320;SDS011;38261;54.090;13.382;2022-08-20T03:51:55;38.93;;;23.13;;
52320;SDS011;38261;54.090;13.382;2022-08-20T03:53:19;34.73;;;22.13;;
52320;SDS011;38261;54.090;13.382;2022-08-20T03:54:41;37.23;;;23.07;;
52320;SDS011;38261;54.090;13.382;2022-08-20T03:56:06;36.13;;;22.53;;
52320;SDS011;38261;54.090;13.382;2022-08-20T03:57:28;37.40;;;23.63;;
52320;SDS011;38261;54.090;13.382;2022-08-20T03:58:50;37.50;;;23.60;;
52320;SDS011;38261;54.090;13.382;2022-08-20T04:00:14;34.90;;;22.80;;
52320;SDS011;38261;54.090;13.382;2022-08-20T04:01:38;33.50;;;21.43;;
52320;SDS011;38261;54.090;13.382;2022-08-20T04:03:07;33.87;;;22.13;;
52320;SDS011;38261;54.090;13.382;2022-08-20T04:04:30;30.53;;;20.87;;
52320;SDS011;38261;54.090;13.382;2022-08-20T04:05:52;40.40;;;24.00;;
52320;SDS011;38261;54.090;13.382;2022-08-20T04:07:16;41.80;;;24.97;;
52320;SDS011;38261;54.090;13.382;2022-08-20T04:08:46;34.03;;;22.87;;
52320;SDS011;38261;54.090;13.382;2022-08-20T04:10:09;35.17;;;22.27;;
52320;SDS011;38261;54.090;13.382;2022-08-20T04:11:32;41.77;;;24.73;;
52320;SDS011;38261;54.090;13.382;2022-08-20T04:12:54;32.60;;;22.80;;
52320;SDS011;38261;54.090;13.382;2022-08-20T04:14:18;41.70;;;23.77;;
52320;SDS011;38261;54.090;13.382;2022-08-20T04:15:41;41.00;;;24.60;;
52320;SDS011;38261;54.090;13.382;2022-08-20T04:17:06;39.07;;;24.40;;
52320;SDS011;38261;54.090;13.382;2022-08-20T04:18:30;39.93;;;24.87;;
52320;SDS011;38261;54.090;13.382;2022-08-20T04:19:53;38.00;;;24.30;;
52320;SDS011;38261;54.090;13.382;2022-08-20T04:21:15;41.40;;;26.20;;
52320;SDS011;38261;54.090;13.382;2022-08-20T04:22:37;40.50;;;25.77;;
52320;SDS011;38261;54.090;13.382;2022-08-20T04:24:01;41.07;;;25.50;;
52320;SDS011;38261;54.090;13.382;2022-08-20T04:25:27;39.27;;;23.97;;
52320;SDS011;38261;54.090;13.382;2022-08-20T04:26:56;45.43;;;26.47;;
52320;SDS011;38261;54.090;13.382;2022-08-20T04:28:20;45.60;;;25.97;;
52320;SDS011;38261;54.090;13.382;2022-08-20T04:29:47;41.13;;;25.83;;
52320;SDS011;38261;54.090;13.382;2022-08-20T04:31:09;46.73;;;28.47;;
52320;SDS011;38261;54.090;13.382;2022-08-20T04:32:34;44.87;;;27.80;;
52320;SDS011;38261;54.090;13.382;2022-08-20T04:34:01;42.90;;;26.37;;
52320;SDS011;38261;54.090;13.382;2022-08-20T04:35:28;51.33;;;27.33;;
52320;SDS011;38261;54.090;13.382;2022-08-20T04:36:51;46.43;;;27.33;;
52320;SDS011;38261;54.090;13.382;2022-08-20T04:38:15;41.40;;;26.70;;
52320;SDS011;38261;54.090;13.382;2022-08-20T04:39:39;49.13;;;27.23;;
52320;SDS011;38261;54.090;13.382;2022-08-20T04:41:01;51.17;;;29.60;;
52320;SDS011;38261;54.090;13.382;2022-08-20T04:42:23;49.83;;;29.80;;
52320;SDS011;38261;54.090;13.382;2022-08-20T04:43:45;53.13;;;29.70;;
52320;SDS011;38261;54.090;13.382;2022-08-20T04:45:07;53.90;;;30.23;;
52320;SDS011;38261;54.090;13.382;2022-08-20T04:46:30;51.00;;;29.17;;
52320;SDS011;38261;54.090;13.382;2022-08-20T04:47:53;52.60;;;29.67;;
52320;SDS011;38261;54.090;13.382;2022-08-20T04:49:15;47.90;;;27.97;;
52320;SDS011;38261;54.090;13.382;2022-08-20T04:50:38;49.90;;;29.60;;
52320;SDS011;38261;54.090;13.382;2022-08-20T04:52:02;55.83;;;29.37;;
52320;SDS011;38261;54.090;13.382;2022-08-20T04:53:25;51.37;;;28.93;;
52320;SDS011;38261;54.090;13.382;2022-08-20T04:54:48;50.23;;;30.47;;
52320;SDS011;38261;54.090;13.382;2022-08-20T04:56:10;48.23;;;27.63;;
52320;SDS011;38261;54.090;13.382;2022-08-20T04:57:33;49.30;;;28.60;;
52320;SDS011;38261;54.090;13.382;2022-08-20T04:58:59;47.17;;;29.00;;
52320;SDS011;38261;54.090;13.382;2022-08-20T05:00:22;50.33;;;30.10;;
52320;SDS011;38261;54.090;13.382;2022-08-20T05:01:44;49.13;;;29.97;;
52320;SDS011;38261;54.090;13.382;2022-08-20T05:03:06;49.47;;;28.70;;
52320;SDS011;38261;54.090;13.382;2022-08-20T05:04:29;46.90;;;27.23;;
52320;SDS011;38261;54.090;13.382;2022-08-20T05:05:51;50.77;;;29.10;;
52320;SDS011;38261;54.090;13.382;2022-08-20T05:07:14;48.90;;;29.00;;
52320;SDS011;38261;54.090;13.382;2022-08-20T05:08:41;48.40;;;29.53;;
52320;SDS011;38261;54.090;13.382;2022-08-20T05:10:04;50.87;;;28.73;;
52320;SDS011;38261;54.090;13.382;2022-08-20T05:11:28;47.40;;;28.80;;
52320;SDS011;38261;54.090;13.382;2022-08-20T05:12:55;47.00;;;29.33;;
52320;SDS011;38261;54.090;13.382;2022-08-20T05:14:17;53.10;;;29.50;;
52320;SDS011;38261;54.090;13.382;2022-08-20T05:15:40;54.77;;;29.97;;
52320;SDS011;38261;54.090;13.382;2022-08-20T05:17:03;51.00;;;29.70;;
52320;SDS011;38261;54.090;13.382;2022-08-20T05:18:26;54.13;;;29.50;;
52320;SDS011;38261;54.090;13.382;2022-08-20T05:19:50;52.00;;;29.43;;
52320;SDS011;38261;54.090;13.382;2022-08-20T05:21:12;51.03;;;29.33;;
52320;SDS011;38261;54.090;13.382;2022-08-20T05:22:36;53.87;;;28.03;;
52320;SDS011;38261;54.090;13.382;2022-08-20T05:23:58;55.50;;;30.70;;
52320;SDS011;38261;54.090;13.382;2022-08-20T05:25:20;53.73;;;30.57;;
52320;SDS011;38261;54.090;13.382;2022-08-20T05:26:43;53.93;;;29.63;;
52320;SDS011;38261;54.090;13.382;2022-08-20T05:28:12;51.30;;;30.70;;
52320;SDS011;38261;54.090;13.382;2022-08-20T05:29:38;46.10;;;27.67;;
52320;SDS011;38261;54.090;13.382;2022-08-20T05:31:02;53.43;;;29.03;;
52320;SDS011;38261;54.090;13.382;2022-08-20T05:32:27;46.20;;;27.43;;
52320;SDS011;38261;54.090;13.382;2022-08-20T05:33:50;44.33;;;26.10;;
52320;SDS011;38261;54.090;13.382;2022-08-20T05:35:12;49.97;;;27.00;;
52320;SDS011;38261;54.090;13.382;2022-08-20T05:36:36;42.93;;;25.17;;
52320;SDS011;38261;54.090;13.382;2022-08-20T05:38:01;44.83;;;27.77;;
52320;SDS011;38261;54.090;13.382;2022-08-20T05:39:23;45.50;;;26.67;;
52320;SDS011;38261;54.090;13.382;2022-08-20T05:40:46;45.57;;;27.00;;
52320;SDS011;38261;54.090;13.382;2022-08-20T05:42:09;48.33;;;27.67;;
52320;SDS011;38261;54.090;13.382;2022-08-20T05:43:31;53.90;;;29.07;;
52320;SDS011;38261;54.090;13.382;2022-08-20T05:44:54;46.10;;;29.10;;
52320;SDS011;38261;54.090;13.382;2022-08-20T05:46:16;49.83;;;28.57;;
52320;SDS011;38261;54.090;13.382;2022-08-20T05:47:39;49.10;;;28.03;;
52320;SDS011;38261;54.090;13.382;2022-08-20T05:49:03;54.00;;;31.60;;
52320;SDS011;38261;54.090;13.382;2022-08-20T05:50:25;49.43;;;29.87;;
52320;SDS011;38261;54.090;13.382;2022-08-20T05:51:48;51.20;;;29.00;;
52320;SDS011;38261;54.090;13.382;2022-08-20T05:53:11;46.30;;;28.60;;
52320;SDS011;38261;54.090;13.382;2022-08-20T05:54:33;49.03;;;27.40;;
52320;SDS011;38261;54.090;13.382;2022-08-20T05:55:58;49.30;;;29.30;;
52320;SDS011;38261;54.090;13.382;2022-08-20T05:57:21;51.17;;;28.83;;
52320;SDS011;38261;54.090;13.382;2022-08-20T05:58:43;49.70;;;29.27;;
52320;SDS011;38261;54.090;13.382;2022-08-20T06:00:06;47.37;;;29.20;;
52320;SDS011;38261;54.090;13.382;2022-08-20T06:01:31;60.07;;;29.97;;
52320;SDS011;38261;54.090;13.382;2022-08-20T06:02:55;46.07;;;28.93;;
52320;SDS011;38261;54.090;13.382;2022-08-20T06:04:36;45.90;;;29.33;;
52320;SDS011;38261;54.090;13.382;2022-08-20T06:05:58;40.23;;;27.50;;
52320;SDS011;38261;54.090;13.382;2022-08-20T06:07:21;40.00;;;25.30;;
52320;SDS011;38261;54.090;13.382;2022-08-20T06:08:43;45.20;;;28.27;;
52320;SDS011;38261;54.090;13.382;2022-08-20T06:10:06;49.87;;;28.13;;
52320;SDS011;38261;54.090;13.382;2022-08-20T06:11:29;44.10;;;27.50;;
52320;SDS011;38261;54.090;13.382;2022-08-20T06:12:57;47.47;;;29.87;;
52320;SDS011;38261;54.090;13.382;2022-08-20T06:14:19;45.03;;;29.90;;
52320;SDS011;38261;54.090;13.382;2022-08-20T06:15:42;49.70;;;29.10;;
52320;SDS011;38261;54.090;13.382;2022-08-20T06:17:08;46.53;;;27.20;;
52320;SDS011;38261;54.090;13.382;2022-08-20T06:18:36;44.73;;;27.03;;
52320;SDS011;38261;54.090;13.382;2022-08-20T06:19:58;45.63;;;27.87;;
52320;SDS011;38261;54.090;13.382;2022-08-20T06:21:24;43.70;;;26.47;;
52320;SDS011;38261;54.090;13.382;2022-08-20T06:22:46;49.50;;;28.27;;
52320;SDS011;38261;54.090;13.382;2022-08-20T06:24:08;46.57;;;27.87;;
52320;SDS011;38261;54.090;13.382;2022-08-20T06:25:31;50.13;;;28.27;;
52320;SDS011;38261;54.090;13.382;2022-08-20T06:26:59;50.37;;;29.80;;
52320;SDS011;38261;54.090;13.382;2022-08-20T06:28:22;55.90;;;30.83;;
52320;SDS011;38261;54.090;13.382;2022-08-20T06:29:45;53.07;;;28.97;;
52320;SDS011;38261;54.090;13.382;2022-08-20T06:31:08;50.10;;;30.53;;
52320;SDS011;38261;54.090;13.382;2022-08-20T06:32:31;54.50;;;30.10;;
52320;SDS011;38261;54.090;13.382;2022-08-20T06:33:54;56.27;;;32.27;;
52320;SDS011;38261;54.090;13.382;2022-08-20T06:35:16;58.07;;;31.23;;
52320;SDS011;38261;54.090;13.382;2022-08-20T06:36:40;55.73;;;31.93;;
52320;SDS011;38261;54.090;13.382;2022-08-20T06:38:03;62.43;;;34.10;;
52320;SDS011;38261;54.090;13.382;2022-08-20T06:39:26;57.43;;;31.40;;
52320;SDS011;38261;54.090;13.382;2022-08-20T06:40:51;59.17;;;32.10;;
52320;SDS011;38261;54.090;13.382;2022-08-20T06:42:13;62.40;;;32.43;;
52320;SDS011;38261;54.090;13.382;2022-08-20T06:43:41;54.73;;;32.13;;
52320;SDS011;38261;54.090;13.382;2022-08-20T06:45:03;65.63;;;33.20;;
52320;SDS011;38261;54.090;13.382;2022-08-20T06:46:26;58.30;;;31.70;;
52320;SDS011;38261;54.090;13.382;2022-08-20T06:47:48;53.60;;;30.27;;
52320;SDS011;38261;54.090;13.382;2022-08-20T06:49:11;52.50;;;30.17;;
52320;SDS011;38261;54.090;13.382;2022-08-20T06:50:35;55.30;;;32.10;;
52320;SDS011;38261;54.090;13.382;2022-08-20T06:52:08;59.73;;;30.87;;
52320;SDS011;38261;54.090;13.382;2022-08-20T06:53:32;56.43;;;30.27;;
52320;SDS011;38261;54.090;13.382;2022-08-20T06:54:54;60.23;;;31.00;;
52320;SDS011;38261;54.090;13.382;2022-08-20T06:56:16;51.33;;;29.93;;
52320;SDS011;38261;54.090;13.382;2022-08-20T06:57:39;50.27;;;27.60;;
52320;SDS011;38261;54.090;13.382;2022-08-20T06:59:01;51.27;;;29.83;;
52320;SDS011;38261;54.090;13.382;2022-08-20T07:00:24;55.17;;;29.80;;
52320;SDS011;38261;54.090;13.382;2022-08-20T07:01:46;47.93;;;28.93;;
52320;SDS011;38261;54.090;13.382;2022-08-20T07:03:11;47.43;;;29.20;;
52320;SDS011;38261;54.090;13.382;2022-08-20T07:04:34;49.47;;;28.33;;
52320;SDS011;38261;54.090;13.382;2022-08-20T07:05:58;52.53;;;30.20;;
52320;SDS011;38261;54.090;13.382;2022-08-20T07:07:20;53.47;;;29.30;;
52320;SDS011;38261;54.090;13.382;2022-08-20T07:08:42;53.70;;;29.57;;
52320;SDS011;38261;54.090;13.382;2022-08-20T07:10:06;51.90;;;31.40;;
52320;SDS011;38261;54.090;13.382;2022-08-20T07:11:29;52.53;;;27.90;;
52320;SDS011;38261;54.090;13.382;2022-08-20T07:12:51;53.73;;;29.30;;
52320;SDS011;38261;54.090;13.382;2022-08-20T07:14:14;54.00;;;30.10;;
52320;SDS011;38261;54.090;13.382;2022-08-20T07:15:37;53.90;;;28.40;;
52320;SDS011;38261;54.090;13.382;2022-08-20T07:17:01;52.33;;;29.90;;
52320;SDS011;38261;54.090;13.382;2022-08-20T07:18:24;56.80;;;30.00;;
52320;SDS011;38261;54.090;13.382;2022-08-20T07:19:49;49.27;;;28.20;;
52320;SDS011;38261;54.090;13.382;2022-08-20T07:21:11;49.63;;;28.70;;
52320;SDS011;38261;54.090;13.382;2022-08-20T07:22:33;49.07;;;28.67;;
52320;SDS011;38261;54.090;13.382;2022-08-20T07:23:57;47.57;;;27.90;;
52320;SDS011;38261;54.090;13.382;2022-08-20T07:25:19;49.53;;;31.50;;
52320;SDS011;38261;54.090;13.382;2022-08-20T07:26:42;50.10;;;26.67;;
52320;SDS011;38261;54.090;13.382;2022-08-20T07:28:23;48.17;;;28.63;;
52320;SDS011;38261;54.090;13.382;2022-08-20T07:29:52;48.93;;;28.97;;
52320;SDS011;38261;54.090;13.382;2022-08-20T07:31:40;51.17;;;26.50;;
52320;SDS011;38261;54.090;13.382;2022-08-20T07:33:21;44.83;;;25.70;;
52320;SDS011;38261;54.090;13.382;2022-08-20T07:34:43;42.03;;;25.10;;
52320;SDS011;38261;54.090;13.382;2022-08-20T07:36:08;42.30;;;25.70;;
52320;SDS011;38261;54.090;13.382;2022-08-20T07:37:35;42.03;;;25.37;;
52320;SDS011;38261;54.090;13.382;2022-08-20T07:39:03;39.97;;;24.57;;
52320;SDS011;38261;54.090;13.382;2022-08-20T07:40:28;38.10;;;24.47;;
52320;SDS011;38261;54.090;13.382;2022-08-20T07:41:53;38.17;;;24.90;;
52320;SDS011;38261;54.090;13.382;2022-08-20T07:43:24;42.80;;;24.20;;
52320;SDS011;38261;54.090;13.382;2022-08-20T07:44:46;41.70;;;24.17;;
52320;SDS011;38261;54.090;13.382;2022-08-20T07:46:09;38.80;;;23.13;;
52320;SDS011;38261;54.090;13.382;2022-08-20T07:47:32;38.13;;;23.07;;
52320;SDS011;38261;54.090;13.382;2022-08-20T07:48:56;33.90;;;22.47;;
52320;SDS011;38261;54.090;13.382;2022-08-20T07:50:24;40.47;;;24.70;;
52320;SDS011;38261;54.090;13.382;2022-08-20T07:51:47;41.93;;;21.87;;
52320;SDS011;38261;54.090;13.382;2022-08-20T07:53:09;34.73;;;21.90;;
52320;SDS011;38261;54.090;13.382;2022-08-20T07:54:32;37.77;;;22.70;;
52320;SDS011;38261;54.090;13.382;2022-08-20T07:55:56;31.00;;;21.50;;
52320;SDS011;38261;54.090;13.382;2022-08-20T07:57:19;31.63;;;20.37;;
52320;SDS011;38261;54.090;13.382;2022-08-20T07:58:43;30.10;;;21.40;;
52320;SDS011;38261;54.090;13.382;2022-08-20T08:00:11;31.93;;;18.80;;
52320;SDS011;38261;54.090;13.382;2022-08-20T08:01:35;27.17;;;19.40;;
52320;SDS011;38261;54.090;13.382;2022-08-20T08:02:57;28.60;;;19.73;;
52320;SDS011;38261;54.090;13.382;2022-08-20T08:04:19;33.23;;;19.53;;
52320;SDS011;38261;54.090;13.382;2022-08-20T08:05:43;28.83;;;19.50;;
52320;SDS011;38261;54.090;13.382;2022-08-20T08:07:08;29.30;;;18.70;;
52320;SDS011;38261;54.090;13.382;2022-08-20T08:08:30;28.20;;;17.03;;
52320;SDS011;38261;54.090;13.382;2022-08-20T08:09:53;30.87;;;18.80;;